createdAt,value
2022-10-19T00:02:12.303Z,6.47
2022-10-19T00:04:38.984Z,7.60
2022-10-19T00:07:05.571Z,7.53
2022-10-19T00:09:32.145Z,7.03
2022-10-19T00:11:58.717Z,7.78
2022-10-19T00:14:25.384Z,7.28
2022-10-19T00:16:52.329Z,7.43
2022-10-19T00:19:20.890Z,6.60
2022-10-19T00:21:47.737Z,6.78
2022-10-19T00:24:14.454Z,7.90
2022-10-19T00:26:41.137Z,6.78
2022-10-19T00:29:07.895Z,7.12
2022-10-19T00:31:34.571Z,7.45
2022-10-19T00:34:01.251Z,7.32
2022-10-19T00:36:30.472Z,8.02
2022-10-19T00:38:57.759Z,6.87
2022-10-19T00:41:25.974Z,7.53
2022-10-19T00:43:52.387Z,8.00
2022-10-19T00:46:18.945Z,6.75
2022-10-19T00:48:50.477Z,7.12
2022-10-19T00:51:17.025Z,7.68
2022-10-19T00:53:43.596Z,6.80
2022-10-19T00:56:13.035Z,8.40
2022-10-19T00:58:42.121Z,7.55
2022-10-19T01:01:09.227Z,7.90
2022-10-19T01:03:37.951Z,7.57
2022-10-19T01:06:04.768Z,8.18
2022-10-19T01:08:31.386Z,8.45
2022-10-19T01:11:39.747Z,7.93
2022-10-19T01:14:19.368Z,8.40
2022-10-19T01:17:08.075Z,6.80
2022-10-19T01:19:53.488Z,7.53
2022-10-19T01:22:20.375Z,7.40
2022-10-19T01:25:11.425Z,7.15
2022-10-19T01:27:44.554Z,7.75
2022-10-19T01:30:47.605Z,7.87
2022-10-19T01:33:26.222Z,7.03
2022-10-19T01:36:11.935Z,7.80
2022-10-19T01:38:44.835Z,7.60
2022-10-19T01:41:12.660Z,7.57
2022-10-19T01:44:19.084Z,7.05
2022-10-19T01:46:49.798Z,7.27
2022-10-19T01:49:22.147Z,7.47
2022-10-19T01:52:00.678Z,7.25
2022-10-19T01:54:30.647Z,7.18
2022-10-19T01:56:58.591Z,7.00
2022-10-19T01:59:25.192Z,6.95
2022-10-19T02:01:52.609Z,7.60
2022-10-19T02:04:20.002Z,7.25
2022-10-19T02:06:46.584Z,7.65
2022-10-19T02:09:18.247Z,7.10
2022-10-19T02:11:49.606Z,6.93
2022-10-19T02:14:18.658Z,7.05
2022-10-19T02:16:48.467Z,7.47
2022-10-19T02:19:15.091Z,7.90
2022-10-19T02:21:41.770Z,7.70
2022-10-19T02:24:08.341Z,8.05
2022-10-19T02:26:34.899Z,8.05
2022-10-19T02:29:01.537Z,7.57
2022-10-19T02:31:28.145Z,7.35
2022-10-19T02:33:54.712Z,7.78
2022-10-19T02:36:22.075Z,7.43
2022-10-19T02:38:48.658Z,7.65
2022-10-19T02:41:18.696Z,6.97
2022-10-19T02:43:51.399Z,7.40
2022-10-19T02:46:46.415Z,7.82
2022-10-19T02:49:13.016Z,7.15
2022-10-19T02:51:41.423Z,7.93
2022-10-19T02:54:08.410Z,7.30
2022-10-19T02:56:38.000Z,8.30
2022-10-19T02:59:04.660Z,7.05
2022-10-19T03:01:31.279Z,7.40
2022-10-19T03:03:57.928Z,7.78
2022-10-19T03:06:24.527Z,7.18
2022-10-19T03:08:51.107Z,7.00
2022-10-19T03:11:17.684Z,7.12
2022-10-19T03:13:44.461Z,7.37
2022-10-19T03:16:11.729Z,7.28
2022-10-19T03:18:38.296Z,7.43
2022-10-19T03:21:09.957Z,7.75
2022-10-19T03:23:36.762Z,7.43
2022-10-19T03:26:04.334Z,7.65
2022-10-19T03:28:32.338Z,7.60
2022-10-19T03:30:58.930Z,7.55
2022-10-19T03:36:18.062Z,7.53
2022-10-19T03:38:44.680Z,7.87
2022-10-19T03:41:11.371Z,7.05
2022-10-19T03:43:37.957Z,7.35
2022-10-19T03:46:04.615Z,7.50
2022-10-19T03:48:31.150Z,6.90
2022-10-19T03:51:20.160Z,6.72
2022-10-19T03:53:47.073Z,7.70
2022-10-19T03:56:15.210Z,6.53
2022-10-19T03:58:42.186Z,6.70
2022-10-19T04:01:11.079Z,6.62
2022-10-19T04:03:37.757Z,7.32
2022-10-19T04:06:05.813Z,7.10
2022-10-19T04:08:32.535Z,6.50
2022-10-19T04:11:06.416Z,6.93
2022-10-19T04:13:33.142Z,7.18
2022-10-19T04:15:59.875Z,6.87
2022-10-19T04:18:26.448Z,7.00
2022-10-19T04:21:00.351Z,7.20
2022-10-19T04:23:27.590Z,6.60
2022-10-19T04:26:00.230Z,7.25
2022-10-19T04:28:26.944Z,6.85
2022-10-19T04:30:53.535Z,6.53
2022-10-19T04:33:20.130Z,6.90
2022-10-19T04:35:46.719Z,6.47
2022-10-19T04:38:13.438Z,6.97
2022-10-19T04:40:39.995Z,6.47
2022-10-19T04:43:06.551Z,7.05
2022-10-19T04:45:35.398Z,6.53
2022-10-19T04:48:02.323Z,7.90
2022-10-19T04:50:28.911Z,6.50
2022-10-19T04:52:55.462Z,6.50
2022-10-19T04:55:22.005Z,6.65
2022-10-19T04:57:48.557Z,6.72
2022-10-19T05:00:15.481Z,6.80
2022-10-19T05:02:45.551Z,5.90
2022-10-19T05:05:13.250Z,7.00
2022-10-19T05:07:39.955Z,6.85
2022-10-19T05:10:07.244Z,6.47
2022-10-19T05:12:35.343Z,6.72
2022-10-19T05:15:02.131Z,6.85
2022-10-19T05:17:32.332Z,8.38
2022-10-19T05:19:59.134Z,9.00
2022-10-19T05:22:28.387Z,8.10
2022-10-19T05:24:58.050Z,9.52
2022-10-19T05:27:24.943Z,9.68
2022-10-19T05:29:51.504Z,8.73
2022-10-19T05:32:18.207Z,8.20
2022-10-19T05:34:44.746Z,8.50
2022-10-19T05:37:11.347Z,8.32
2022-10-19T05:39:37.951Z,7.50
2022-10-19T05:42:04.516Z,8.35
2022-10-19T05:44:31.141Z,7.57
2022-10-19T05:46:57.725Z,7.93
2022-10-19T05:49:24.365Z,7.80
2022-10-19T05:51:51.046Z,7.28
2022-10-19T05:54:17.625Z,7.78
2022-10-19T05:56:44.556Z,8.02
2022-10-19T05:59:16.476Z,7.18
2022-10-19T06:01:43.087Z,7.65
2022-10-19T06:04:10.842Z,8.20
2022-10-19T06:06:37.466Z,7.80
2022-10-19T06:09:04.085Z,7.68
2022-10-19T06:11:33.894Z,7.70
2022-10-19T06:14:02.365Z,7.22
2022-10-19T06:16:29.514Z,7.43
2022-10-19T06:18:56.141Z,7.90
2022-10-19T06:21:24.236Z,8.98
2022-10-19T06:23:51.861Z,8.30
2022-10-19T06:26:18.602Z,7.55
2022-10-19T06:28:45.258Z,8.07
2022-10-19T06:31:12.756Z,7.22
2022-10-19T06:33:39.755Z,7.00
2022-10-19T06:36:19.784Z,7.22
2022-10-19T06:38:46.583Z,6.82
2022-10-19T06:41:13.337Z,6.43
2022-10-19T06:43:40.339Z,5.93
2022-10-19T06:46:12.087Z,5.68
2022-10-19T06:48:40.643Z,5.78
2022-10-19T06:51:07.788Z,5.97
2022-10-19T06:53:35.485Z,6.25
2022-10-19T06:56:02.800Z,6.12
2022-10-19T06:58:29.444Z,5.68
2022-10-19T07:00:57.329Z,6.68
2022-10-19T07:03:24.944Z,5.30
2022-10-19T07:05:55.564Z,5.60
2022-10-19T07:08:25.221Z,5.37
2022-10-19T07:10:56.755Z,5.47
2022-10-19T07:13:23.529Z,5.90
2022-10-19T07:15:50.349Z,5.30
2022-10-19T07:18:17.002Z,5.95
2022-10-19T07:20:43.595Z,4.90
2022-10-19T07:23:10.140Z,5.90
2022-10-19T07:25:36.692Z,5.20
2022-10-19T07:28:03.430Z,5.45
2022-10-19T07:30:29.991Z,5.57
2022-10-19T07:32:56.735Z,4.93
2022-10-19T07:35:25.255Z,4.55
2022-10-19T07:37:51.913Z,5.47
2022-10-19T07:40:21.384Z,4.95
2022-10-19T07:42:47.950Z,5.50
2022-10-19T07:45:14.571Z,5.15
2022-10-19T07:47:41.167Z,4.82
2022-10-19T07:50:08.172Z,5.32
2022-10-19T07:52:36.851Z,5.12
2022-10-19T07:55:03.958Z,5.00
2022-10-19T07:57:30.563Z,5.18
2022-10-19T07:59:57.233Z,6.43
2022-10-19T08:02:30.781Z,5.15
2022-10-19T08:05:10.519Z,5.07
2022-10-19T08:07:38.267Z,5.15
2022-10-19T08:10:05.399Z,5.25
2022-10-19T08:12:32.317Z,5.07
2022-10-19T08:14:59.055Z,5.12
2022-10-19T08:17:25.683Z,5.07
2022-10-19T08:19:52.269Z,5.12
2022-10-19T08:22:18.892Z,7.18
2022-10-19T08:24:45.467Z,6.00
2022-10-19T08:27:12.259Z,4.87
2022-10-19T08:29:38.839Z,5.37
2022-10-19T08:32:05.495Z,5.18
2022-10-19T08:34:33.543Z,5.20
2022-10-19T08:37:06.766Z,5.25
2022-10-19T08:39:41.559Z,4.90
2022-10-19T08:42:23.498Z,4.75
2022-10-19T08:44:59.962Z,4.75
2022-10-19T08:47:50.663Z,5.03
2022-10-19T08:50:41.076Z,5.07
2022-10-19T08:53:11.673Z,5.30
2022-10-19T08:55:41.096Z,5.12
2022-10-19T08:58:20.550Z,5.12
2022-10-19T09:00:54.865Z,5.03
2022-10-19T09:03:55.903Z,4.60
2022-10-19T09:06:23.235Z,5.12
2022-10-19T09:08:53.809Z,4.95
2022-10-19T09:11:37.505Z,4.35
2022-10-19T09:14:36.422Z,4.65
2022-10-19T09:17:04.528Z,5.57
2022-10-19T09:19:32.078Z,4.30
2022-10-19T09:22:02.386Z,4.28
2022-10-19T09:24:37.768Z,4.65
2022-10-19T09:27:06.399Z,4.60
2022-10-19T09:29:48.100Z,4.15
2022-10-19T09:32:17.311Z,3.97
2022-10-19T09:34:45.882Z,4.43
2022-10-19T09:37:21.222Z,4.30
2022-10-19T09:39:55.717Z,4.57
2022-10-19T09:42:33.880Z,4.20
2022-10-19T09:45:12.463Z,4.43
2022-10-19T09:47:42.733Z,4.30
2022-10-19T09:50:09.284Z,4.25
2022-10-19T09:52:39.372Z,3.62
2022-10-19T09:55:14.943Z,3.47
2022-10-19T09:57:57.679Z,3.92
2022-10-19T10:00:25.710Z,3.20
2022-10-19T10:02:55.565Z,3.17
2022-10-19T10:05:32.494Z,3.87
2022-10-19T10:07:59.067Z,3.95
2022-10-19T10:10:37.118Z,3.28
2022-10-19T10:13:03.741Z,2.90
2022-10-19T10:15:44.006Z,3.72
2022-10-19T10:18:18.833Z,3.67
2022-10-19T10:20:58.832Z,4.00
2022-10-19T10:23:27.098Z,4.05
2022-10-19T10:25:57.376Z,3.85
2022-10-19T10:28:25.552Z,3.80
2022-10-19T10:31:05.312Z,3.25
2022-10-19T10:33:44.370Z,3.30
2022-10-19T10:36:12.075Z,3.28
2022-10-19T10:38:46.205Z,3.75
2022-10-19T10:41:14.836Z,2.55
2022-10-19T10:44:00.990Z,2.87
2022-10-19T10:46:46.283Z,3.03
2022-10-19T10:49:49.680Z,3.33
2022-10-19T10:52:16.495Z,3.00
2022-10-19T10:55:09.241Z,2.78
2022-10-19T10:57:38.435Z,2.55
2022-10-19T11:00:11.344Z,2.35
2022-10-19T11:03:12.214Z,2.25
2022-10-19T11:05:46.003Z,2.20
2022-10-19T11:08:12.449Z,2.30
2022-10-19T11:11:02.058Z,2.50
2022-10-19T11:13:39.296Z,2.20
2022-10-19T11:16:19.371Z,2.10
2022-10-19T11:18:51.999Z,1.75
2022-10-19T11:21:21.411Z,1.75
2022-10-19T11:24:14.449Z,2.00
2022-10-19T11:26:50.831Z,1.80
2022-10-19T11:29:24.227Z,1.92
2022-10-19T11:31:56.998Z,2.03
2022-10-19T11:34:37.011Z,1.83
2022-10-19T11:37:12.298Z,1.58
2022-10-19T11:39:57.703Z,1.42
2022-10-19T11:42:36.239Z,2.07
2022-10-19T11:45:22.240Z,1.70
2022-10-19T11:48:15.041Z,1.60
2022-10-19T11:50:54.140Z,1.80
2022-10-19T11:53:31.910Z,2.10
2022-10-19T11:56:07.341Z,1.75
2022-10-19T11:58:45.575Z,1.02
2022-10-19T12:01:17.414Z,1.35
2022-10-19T12:03:53.521Z,2.10
2022-10-19T12:06:29.078Z,1.75
2022-10-19T12:09:14.348Z,2.20
2022-10-19T12:11:59.034Z,1.80
2022-10-19T12:14:27.083Z,2.12
2022-10-19T12:16:56.798Z,1.77
2022-10-19T12:19:29.130Z,1.60
2022-10-19T12:22:00.090Z,1.17
2022-10-19T12:24:27.154Z,1.42
2022-10-19T12:26:54.224Z,1.62
2022-10-19T12:29:28.188Z,1.20
2022-10-19T12:31:55.296Z,1.12
2022-10-19T12:34:33.813Z,1.15
2022-10-19T12:37:20.486Z,1.17
2022-10-19T12:40:31.631Z,1.40
2022-10-19T12:43:12.371Z,1.10
2022-10-19T12:45:39.779Z,2.28
2022-10-19T12:48:10.922Z,1.12
2022-10-19T12:50:49.606Z,1.02
2022-10-19T12:53:30.918Z,1.27
2022-10-19T12:56:00.500Z,1.40
2022-10-19T12:58:27.051Z,1.60
2022-10-19T13:01:00.736Z,1.37
2022-10-19T13:03:38.259Z,1.40
2022-10-19T13:06:13.556Z,1.23
2022-10-19T13:08:46.738Z,1.15
2022-10-19T13:11:15.255Z,1.40
2022-10-19T13:13:53.239Z,1.10
2022-10-19T13:16:28.855Z,1.42
2022-10-19T13:19:14.435Z,1.48
2022-10-19T13:22:07.404Z,1.40
2022-10-19T13:24:35.576Z,1.30
2022-10-19T13:27:02.035Z,1.85
2022-10-19T13:29:48.740Z,1.52
2022-10-19T13:32:36.479Z,1.35
2022-10-19T13:35:22.310Z,1.20
2022-10-19T13:38:31.082Z,1.10
2022-10-19T13:41:25.562Z,1.27
2022-10-19T13:43:54.618Z,1.40
2022-10-19T13:46:30.378Z,1.27
2022-10-19T13:49:27.904Z,1.37
2022-10-19T13:52:05.739Z,1.30
2022-10-19T13:55:02.972Z,1.73
2022-10-19T13:58:02.675Z,1.20
2022-10-19T14:00:47.899Z,1.10
2022-10-19T14:03:37.640Z,1.70
2022-10-19T14:06:28.514Z,1.40
2022-10-19T14:09:16.938Z,1.48
2022-10-19T14:11:44.489Z,1.40
2022-10-19T14:14:10.901Z,1.17
2022-10-19T14:16:56.092Z,1.50
2022-10-19T14:19:32.875Z,1.90
2022-10-19T14:22:00.912Z,1.77
2022-10-19T14:24:29.688Z,1.50
2022-10-19T14:26:57.119Z,1.80
2022-10-19T14:29:23.715Z,1.42
2022-10-19T14:31:50.344Z,1.30
2022-10-19T14:34:17.052Z,1.30
2022-10-19T14:36:45.296Z,1.70
2022-10-19T14:39:35.259Z,1.62
2022-10-19T14:42:05.863Z,1.50
2022-10-19T14:44:42.583Z,1.33
2022-10-19T14:47:18.010Z,1.23
2022-10-19T14:49:44.786Z,1.40
2022-10-19T14:52:12.908Z,1.35
2022-10-19T14:54:41.729Z,1.37
2022-10-19T14:57:17.519Z,1.65
2022-10-19T15:02:25.771Z,1.67
2022-10-19T15:04:53.325Z,1.62
2022-10-19T15:07:30.447Z,1.50
2022-10-19T15:09:58.422Z,1.67
2022-10-19T15:12:39.088Z,1.75
2022-10-19T15:15:25.200Z,1.58
2022-10-19T15:18:01.950Z,1.23
2022-10-19T15:20:43.869Z,1.60
2022-10-19T15:23:43.735Z,1.48
2022-10-19T15:26:26.413Z,1.50
2022-10-19T15:28:53.865Z,1.37
2022-10-19T15:31:24.224Z,1.10
2022-10-19T15:33:58.545Z,1.23
2022-10-19T15:36:25.129Z,1.40
2022-10-19T15:39:25.058Z,1.27
2022-10-19T15:42:36.177Z,1.40
2022-10-19T15:45:04.378Z,1.40
2022-10-19T15:47:31.326Z,1.50
2022-10-19T15:50:00.022Z,1.30
2022-10-19T15:52:32.291Z,1.48
2022-10-19T15:54:59.352Z,1.70
2022-10-19T15:57:36.851Z,1.50
2022-10-19T16:00:14.878Z,1.52
2022-10-19T16:02:41.554Z,1.50
2022-10-19T16:05:08.218Z,1.50
2022-10-19T16:07:36.739Z,1.50
2022-10-19T16:10:03.555Z,1.50
2022-10-19T16:12:30.367Z,1.27
2022-10-19T16:14:56.899Z,1.48
2022-10-19T16:17:23.461Z,1.35
2022-10-19T16:19:53.557Z,1.30
2022-10-19T16:22:20.254Z,1.30
2022-10-19T16:24:46.823Z,1.40
2022-10-19T16:27:15.244Z,1.50
2022-10-19T16:29:43.113Z,1.30
2022-10-19T16:32:09.682Z,1.48
2022-10-19T16:34:36.319Z,1.20
2022-10-19T16:37:05.949Z,1.35
2022-10-19T16:39:33.793Z,1.75
2022-10-19T16:42:00.470Z,1.40
2022-10-19T16:44:27.078Z,1.52
2022-10-19T16:46:56.184Z,1.40
2022-10-19T16:49:24.308Z,1.33
2022-10-19T16:51:53.254Z,1.60
2022-10-19T16:54:23.138Z,1.50
2022-10-19T16:56:49.845Z,1.77
2022-10-19T16:59:17.862Z,1.12
2022-10-19T17:01:44.954Z,1.50
2022-10-19T17:04:12.197Z,1.40
2022-10-19T17:06:38.874Z,1.15
2022-10-19T17:11:52.349Z,1.40
2022-10-19T17:14:18.987Z,1.33
2022-10-19T17:16:45.630Z,1.30
2022-10-19T17:19:12.527Z,1.48
2022-10-19T17:21:39.332Z,1.40
2022-10-19T17:24:07.587Z,1.45
2022-10-19T17:26:39.253Z,1.83
2022-10-19T17:29:05.998Z,1.12
2022-10-19T17:31:32.590Z,1.30
2022-10-19T17:34:00.665Z,1.73
2022-10-19T17:36:28.760Z,1.30
2022-10-19T17:38:58.967Z,1.20
2022-10-19T17:41:25.719Z,1.80
2022-10-19T17:43:52.674Z,1.60
2022-10-19T17:46:24.064Z,1.50
2022-10-19T17:48:50.652Z,1.45
2022-10-19T17:51:19.016Z,1.40
2022-10-19T17:53:46.530Z,1.40
2022-10-19T17:56:15.000Z,1.50
2022-10-19T17:58:41.620Z,1.55
2022-10-19T18:01:08.244Z,1.48
2022-10-19T18:03:35.047Z,1.42
2022-10-19T18:06:18.658Z,2.08
2022-10-19T18:08:47.390Z,2.37
2022-10-19T18:11:25.098Z,1.90
2022-10-19T18:13:52.152Z,1.70
2022-10-19T18:16:24.314Z,1.77
2022-10-19T18:18:51.877Z,1.80
2022-10-19T18:21:20.556Z,1.67
2022-10-19T18:23:47.211Z,1.90
2022-10-19T18:26:19.606Z,1.87
2022-10-19T18:28:46.482Z,1.30
2022-10-19T18:31:14.627Z,1.70
2022-10-19T18:33:41.270Z,2.55
2022-10-19T18:36:08.680Z,1.50
2022-10-19T18:38:35.235Z,1.60
2022-10-19T18:41:02.890Z,1.70
